sensor_id;sensor_type;location;lat;lon;timestamp;P1;durP1;ratioP1;P2;durP2;ratioP2
28577;SDS011;15769;52.248;15.818;2024-02-04T00:01:41;8.70;;;2.22;;
28577;SDS011;15769;52.248;15.818;2024-02-04T00:06:44;7.40;;;2.47;;
28577;SDS011;15769;52.248;15.818;2024-02-04T00:11:48;8.45;;;2.05;;
28577;SDS011;15769;52.248;15.818;2024-02-04T00:16:54;8.57;;;2.55;;
28577;SDS011;15769;52.248;15.818;2024-02-04T00:22:03;9.73;;;2.30;;
28577;SDS011;15769;52.248;15.818;2024-02-04T00:27:08;8.98;;;2.40;;
28577;SDS011;15769;52.248;15.818;2024-02-04T00:32:17;13.27;;;3.13;;
28577;SDS011;15769;52.248;15.818;2024-02-04T00:37:20;10.90;;;2.37;;
28577;SDS011;15769;52.248;15.818;2024-02-04T00:42:26;8.77;;;2.72;;
28577;SDS011;15769;52.248;15.818;2024-02-04T00:52:54;6.90;;;2.40;;
28577;SDS011;15769;52.248;15.818;2024-02-04T01:03:41;11.85;;;3.00;;
28577;SDS011;15769;52.248;15.818;2024-02-04T01:14:01;9.95;;;2.28;;
28577;SDS011;15769;52.248;15.818;2024-02-04T01:35:16;6.72;;;2.20;;
28577;SDS011;15769;52.248;15.818;2024-02-04T01:40:19;5.25;;;1.73;;
28577;SDS011;15769;52.248;15.818;2024-02-04T01:45:23;10.45;;;2.42;;
28577;SDS011;15769;52.248;15.818;2024-02-04T01:50:30;9.57;;;2.58;;
28577;SDS011;15769;52.248;15.818;2024-02-04T01:55:33;8.23;;;2.25;;
28577;SDS011;15769;52.248;15.818;2024-02-04T02:00:37;9.02;;;2.13;;
28577;SDS011;15769;52.248;15.818;2024-02-04T02:32:45;7.63;;;2.20;;
28577;SDS011;15769;52.248;15.818;2024-02-04T02:49:10;7.35;;;2.10;;
28577;SDS011;15769;52.248;15.818;2024-02-04T02:59:38;7.25;;;2.00;;
28577;SDS011;15769;52.248;15.818;2024-02-04T03:10:00;16.17;;;2.47;;
28577;SDS011;15769;52.248;15.818;2024-02-04T03:35:48;9.90;;;2.63;;
28577;SDS011;15769;52.248;15.818;2024-02-04T03:40:51;6.47;;;1.60;;
28577;SDS011;15769;52.248;15.818;2024-02-04T03:45:54;11.23;;;2.00;;
28577;SDS011;15769;52.248;15.818;2024-02-04T03:50:57;6.63;;;1.80;;
28577;SDS011;15769;52.248;15.818;2024-02-04T04:01:13;31.42;;;14.70;;
28577;SDS011;15769;52.248;15.818;2024-02-04T04:06:16;26.58;;;14.82;;
28577;SDS011;15769;52.248;15.818;2024-02-04T04:11:20;19.63;;;8.63;;
28577;SDS011;15769;52.248;15.818;2024-02-04T04:16:23;9.70;;;4.53;;
28577;SDS011;15769;52.248;15.818;2024-02-04T04:26:29;15.65;;;3.15;;
28577;SDS011;15769;52.248;15.818;2024-02-04T04:31:36;13.98;;;2.65;;
28577;SDS011;15769;52.248;15.818;2024-02-04T04:36:43;11.00;;;2.40;;
28577;SDS011;15769;52.248;15.818;2024-02-04T04:41:46;6.30;;;1.63;;
28577;SDS011;15769;52.248;15.818;2024-02-04T04:46:49;9.40;;;2.17;;
28577;SDS011;15769;52.248;15.818;2024-02-04T04:51:52;10.20;;;2.75;;
28577;SDS011;15769;52.248;15.818;2024-02-04T05:02:11;7.82;;;3.28;;
28577;SDS011;15769;52.248;15.818;2024-02-04T05:07:14;11.27;;;3.28;;
28577;SDS011;15769;52.248;15.818;2024-02-04T05:12:17;12.52;;;3.40;;
28577;SDS011;15769;52.248;15.818;2024-02-04T05:22:43;13.18;;;3.30;;
28577;SDS011;15769;52.248;15.818;2024-02-04T05:27:46;9.73;;;3.05;;
28577;SDS011;15769;52.248;15.818;2024-02-04T05:32:49;8.43;;;2.67;;
28577;SDS011;15769;52.248;15.818;2024-02-04T05:37:52;8.70;;;2.95;;
28577;SDS011;15769;52.248;15.818;2024-02-04T05:42:58;9.48;;;2.85;;
28577;SDS011;15769;52.248;15.818;2024-02-04T05:53:18;11.60;;;2.83;;
28577;SDS011;15769;52.248;15.818;2024-02-04T05:58:22;7.90;;;3.05;;
28577;SDS011;15769;52.248;15.818;2024-02-04T06:08:37;13.73;;;3.45;;
28577;SDS011;15769;52.248;15.818;2024-02-04T06:13:41;17.37;;;8.83;;
28577;SDS011;15769;52.248;15.818;2024-02-04T06:18:48;12.20;;;5.65;;
28577;SDS011;15769;52.248;15.818;2024-02-04T06:23:51;16.58;;;4.70;;
28577;SDS011;15769;52.248;15.818;2024-02-04T06:28:54;11.82;;;3.47;;
28577;SDS011;15769;52.248;15.818;2024-02-04T06:33:57;7.28;;;3.22;;
28577;SDS011;15769;52.248;15.818;2024-02-04T06:39:00;9.98;;;2.63;;
28577;SDS011;15769;52.248;15.818;2024-02-04T06:59:57;6.85;;;2.80;;
28577;SDS011;15769;52.248;15.818;2024-02-04T07:05:00;5.82;;;2.58;;
28577;SDS011;15769;52.248;15.818;2024-02-04T07:10:03;7.00;;;2.60;;
28577;SDS011;15769;52.248;15.818;2024-02-04T07:15:13;10.05;;;2.55;;
28577;SDS011;15769;52.248;15.818;2024-02-04T07:20:16;9.30;;;2.75;;
28577;SDS011;15769;52.248;15.818;2024-02-04T07:25:20;9.52;;;2.78;;
28577;SDS011;15769;52.248;15.818;2024-02-04T07:30:26;9.60;;;3.05;;
28577;SDS011;15769;52.248;15.818;2024-02-04T07:35:29;10.30;;;2.88;;
28577;SDS011;15769;52.248;15.818;2024-02-04T07:40:52;14.53;;;2.73;;
28577;SDS011;15769;52.248;15.818;2024-02-04T07:46:00;9.05;;;2.20;;
28577;SDS011;15769;52.248;15.818;2024-02-04T07:51:07;7.97;;;2.35;;
28577;SDS011;15769;52.248;15.818;2024-02-04T07:56:10;7.03;;;2.10;;
28577;SDS011;15769;52.248;15.818;2024-02-04T08:01:13;9.55;;;2.55;;
28577;SDS011;15769;52.248;15.818;2024-02-04T08:06:24;7.85;;;2.38;;
28577;SDS011;15769;52.248;15.818;2024-02-04T08:11:27;7.95;;;2.30;;
28577;SDS011;15769;52.248;15.818;2024-02-04T08:16:30;5.78;;;1.95;;
28577;SDS011;15769;52.248;15.818;2024-02-04T08:21:34;11.13;;;3.55;;
28577;SDS011;15769;52.248;15.818;2024-02-04T08:32:02;5.15;;;2.05;;
28577;SDS011;15769;52.248;15.818;2024-02-04T08:37:06;11.57;;;3.05;;
28577;SDS011;15769;52.248;15.818;2024-02-04T08:42:12;8.82;;;2.30;;
28577;SDS011;15769;52.248;15.818;2024-02-04T08:52:24;9.93;;;3.60;;
28577;SDS011;15769;52.248;15.818;2024-02-04T08:57:27;11.50;;;4.20;;
28577;SDS011;15769;52.248;15.818;2024-02-04T09:02:30;11.60;;;3.97;;
28577;SDS011;15769;52.248;15.818;2024-02-04T09:07:33;9.73;;;3.58;;
28577;SDS011;15769;52.248;15.818;2024-02-04T09:12:38;9.10;;;4.13;;
28577;SDS011;15769;52.248;15.818;2024-02-04T09:22:45;9.80;;;3.20;;
28577;SDS011;15769;52.248;15.818;2024-02-04T09:27:48;13.57;;;4.68;;
28577;SDS011;15769;52.248;15.818;2024-02-04T09:32:51;15.85;;;4.78;;
28577;SDS011;15769;52.248;15.818;2024-02-04T09:37:55;12.63;;;4.20;;
28577;SDS011;15769;52.248;15.818;2024-02-04T09:43:00;13.82;;;3.75;;
28577;SDS011;15769;52.248;15.818;2024-02-04T09:53:09;12.18;;;3.63;;
28577;SDS011;15769;52.248;15.818;2024-02-04T09:58:27;14.57;;;6.90;;
28577;SDS011;15769;52.248;15.818;2024-02-04T10:03:30;11.68;;;4.47;;
28577;SDS011;15769;52.248;15.818;2024-02-04T10:08:35;9.40;;;5.07;;
28577;SDS011;15769;52.248;15.818;2024-02-04T10:13:44;10.68;;;3.45;;
28577;SDS011;15769;52.248;15.818;2024-02-04T10:18:48;13.55;;;7.00;;
28577;SDS011;15769;52.248;15.818;2024-02-04T10:28:55;26.25;;;8.13;;
28577;SDS011;15769;52.248;15.818;2024-02-04T10:34:00;25.52;;;8.05;;
28577;SDS011;15769;52.248;15.818;2024-02-04T10:39:04;35.83;;;10.40;;
28577;SDS011;15769;52.248;15.818;2024-02-04T10:44:07;21.30;;;6.57;;
28577;SDS011;15769;52.248;15.818;2024-02-04T10:49:13;24.63;;;6.63;;
28577;SDS011;15769;52.248;15.818;2024-02-04T10:54:20;26.65;;;7.78;;
28577;SDS011;15769;52.248;15.818;2024-02-04T10:59:26;18.70;;;5.68;;
28577;SDS011;15769;52.248;15.818;2024-02-04T11:04:35;18.25;;;5.10;;
28577;SDS011;15769;52.248;15.818;2024-02-04T11:09:39;25.15;;;7.15;;
28577;SDS011;15769;52.248;15.818;2024-02-04T11:14:43;12.98;;;4.47;;
28577;SDS011;15769;52.248;15.818;2024-02-04T11:25:20;18.48;;;5.05;;
28577;SDS011;15769;52.248;15.818;2024-02-04T11:30:35;12.27;;;3.80;;
28577;SDS011;15769;52.248;15.818;2024-02-04T11:35:39;14.15;;;4.00;;
28577;SDS011;15769;52.248;15.818;2024-02-04T11:40:42;19.52;;;8.50;;
28577;SDS011;15769;52.248;15.818;2024-02-04T11:45:45;16.05;;;6.80;;
28577;SDS011;15769;52.248;15.818;2024-02-04T11:55:59;22.85;;;7.15;;
28577;SDS011;15769;52.248;15.818;2024-02-04T12:01:09;15.60;;;5.90;;
28577;SDS011;15769;52.248;15.818;2024-02-04T12:06:14;16.63;;;7.18;;
28577;SDS011;15769;52.248;15.818;2024-02-04T12:11:19;16.27;;;6.68;;
28577;SDS011;15769;52.248;15.818;2024-02-04T12:16:22;14.07;;;5.20;;
28577;SDS011;15769;52.248;15.818;2024-02-04T12:21:25;17.58;;;5.55;;
28577;SDS011;15769;52.248;15.818;2024-02-04T12:26:28;30.30;;;11.15;;
28577;SDS011;15769;52.248;15.818;2024-02-04T12:36:56;22.45;;;8.65;;
28577;SDS011;15769;52.248;15.818;2024-02-04T12:47:32;16.27;;;5.80;;
28577;SDS011;15769;52.248;15.818;2024-02-04T12:58:00;17.17;;;5.70;;
28577;SDS011;15769;52.248;15.818;2024-02-04T13:03:10;27.40;;;14.43;;
28577;SDS011;15769;52.248;15.818;2024-02-04T13:08:14;29.58;;;13.75;;
28577;SDS011;15769;52.248;15.818;2024-02-04T13:13:22;27.17;;;10.20;;
28577;SDS011;15769;52.248;15.818;2024-02-04T13:18:29;23.83;;;9.80;;
28577;SDS011;15769;52.248;15.818;2024-02-04T13:23:38;22.33;;;12.40;;
28577;SDS011;15769;52.248;15.818;2024-02-04T13:28:42;27.70;;;13.43;;
28577;SDS011;15769;52.248;15.818;2024-02-04T13:33:49;21.98;;;10.23;;
28577;SDS011;15769;52.248;15.818;2024-02-04T13:38:52;16.35;;;6.03;;
28577;SDS011;15769;52.248;15.818;2024-02-04T13:43:55;14.80;;;7.15;;
28577;SDS011;15769;52.248;15.818;2024-02-04T13:48:58;14.40;;;7.18;;
28577;SDS011;15769;52.248;15.818;2024-02-04T13:54:03;13.40;;;6.25;;
28577;SDS011;15769;52.248;15.818;2024-02-04T13:59:06;16.85;;;6.85;;
28577;SDS011;15769;52.248;15.818;2024-02-04T14:04:11;10.30;;;5.70;;
28577;SDS011;15769;52.248;15.818;2024-02-04T14:09:16;21.00;;;9.52;;
28577;SDS011;15769;52.248;15.818;2024-02-04T14:14:19;41.22;;;19.92;;
28577;SDS011;15769;52.248;15.818;2024-02-04T14:19:25;37.75;;;16.63;;
28577;SDS011;15769;52.248;15.818;2024-02-04T14:24:28;23.90;;;11.23;;
28577;SDS011;15769;52.248;15.818;2024-02-04T14:29:31;19.17;;;8.90;;
28577;SDS011;15769;52.248;15.818;2024-02-04T14:39:44;15.65;;;6.28;;
28577;SDS011;15769;52.248;15.818;2024-02-04T14:44:47;22.00;;;8.45;;
28577;SDS011;15769;52.248;15.818;2024-02-04T14:49:50;18.83;;;10.13;;
28577;SDS011;15769;52.248;15.818;2024-02-04T14:54:53;23.35;;;9.57;;
28577;SDS011;15769;52.248;15.818;2024-02-04T14:59:59;27.65;;;12.90;;
28577;SDS011;15769;52.248;15.818;2024-02-04T15:05:02;25.30;;;12.57;;
28577;SDS011;15769;52.248;15.818;2024-02-04T15:10:06;15.80;;;7.80;;
28577;SDS011;15769;52.248;15.818;2024-02-04T15:15:09;18.38;;;9.25;;
28577;SDS011;15769;52.248;15.818;2024-02-04T15:20:13;34.92;;;14.35;;
28577;SDS011;15769;52.248;15.818;2024-02-04T15:25:20;41.08;;;14.98;;
28577;SDS011;15769;52.248;15.818;2024-02-04T15:30:27;53.17;;;24.48;;
28577;SDS011;15769;52.248;15.818;2024-02-04T15:35:30;35.83;;;15.82;;
28577;SDS011;15769;52.248;15.818;2024-02-04T15:40:35;25.58;;;10.40;;
28577;SDS011;15769;52.248;15.818;2024-02-04T15:45:37;31.63;;;11.63;;
28577;SDS011;15769;52.248;15.818;2024-02-04T15:50:41;33.30;;;13.00;;
28577;SDS011;15769;52.248;15.818;2024-02-04T16:00:48;28.80;;;11.50;;
28577;SDS011;15769;52.248;15.818;2024-02-04T16:05:56;30.17;;;14.60;;
28577;SDS011;15769;52.248;15.818;2024-02-04T16:11:04;36.38;;;17.80;;
28577;SDS011;15769;52.248;15.818;2024-02-04T16:21:21;249.48;;;114.38;;
28577;SDS011;15769;52.248;15.818;2024-02-04T16:26:24;41.05;;;25.17;;
28577;SDS011;15769;52.248;15.818;2024-02-04T16:31:42;154.40;;;48.97;;
28577;SDS011;15769;52.248;15.818;2024-02-04T16:36:48;157.75;;;56.33;;
28577;SDS011;15769;52.248;15.818;2024-02-04T16:41:51;164.10;;;36.10;;
28577;SDS011;15769;52.248;15.818;2024-02-04T16:46:56;108.38;;;44.60;;
28577;SDS011;15769;52.248;15.818;2024-02-04T16:51:59;203.80;;;44.35;;
28577;SDS011;15769;52.248;15.818;2024-02-04T16:57:03;139.73;;;30.88;;
28577;SDS011;15769;52.248;15.818;2024-02-04T17:02:11;62.72;;;27.38;;
28577;SDS011;15769;52.248;15.818;2024-02-04T17:07:19;130.50;;;31.65;;
28577;SDS011;15769;52.248;15.818;2024-02-04T17:12:23;83.18;;;33.22;;
28577;SDS011;15769;52.248;15.818;2024-02-04T17:17:29;115.95;;;28.73;;
28577;SDS011;15769;52.248;15.818;2024-02-04T17:22:34;94.65;;;28.17;;
28577;SDS011;15769;52.248;15.818;2024-02-04T17:27:41;55.85;;;22.77;;
28577;SDS011;15769;52.248;15.818;2024-02-04T17:32:45;79.00;;;25.58;;
28577;SDS011;15769;52.248;15.818;2024-02-04T17:37:55;74.88;;;27.52;;
28577;SDS011;15769;52.248;15.818;2024-02-04T17:43:02;42.58;;;18.02;;
28577;SDS011;15769;52.248;15.818;2024-02-04T17:53:17;44.20;;;15.02;;
28577;SDS011;15769;52.248;15.818;2024-02-04T17:58:25;29.20;;;11.82;;
28577;SDS011;15769;52.248;15.818;2024-02-04T18:03:28;40.63;;;13.93;;
28577;SDS011;15769;52.248;15.818;2024-02-04T18:08:36;35.35;;;12.63;;
28577;SDS011;15769;52.248;15.818;2024-02-04T18:13:40;24.50;;;10.05;;
28577;SDS011;15769;52.248;15.818;2024-02-04T18:23:54;32.03;;;11.35;;
28577;SDS011;15769;52.248;15.818;2024-02-04T18:29:01;33.97;;;16.45;;
28577;SDS011;15769;52.248;15.818;2024-02-04T18:39:08;27.42;;;11.57;;
28577;SDS011;15769;52.248;15.818;2024-02-04T18:44:13;34.90;;;14.20;;
28577;SDS011;15769;52.248;15.818;2024-02-04T18:49:19;37.75;;;19.13;;
28577;SDS011;15769;52.248;15.818;2024-02-04T18:54:29;23.63;;;11.05;;
28577;SDS011;15769;52.248;15.818;2024-02-04T19:05:24;23.23;;;10.40;;
28577;SDS011;15769;52.248;15.818;2024-02-04T19:10:30;17.63;;;7.50;;
28577;SDS011;15769;52.248;15.818;2024-02-04T19:20:47;24.25;;;12.20;;
28577;SDS011;15769;52.248;15.818;2024-02-04T19:26:15;16.45;;;7.43;;
28577;SDS011;15769;52.248;15.818;2024-02-04T19:36:41;20.98;;;7.57;;
28577;SDS011;15769;52.248;15.818;2024-02-04T19:41:49;13.48;;;5.05;;
28577;SDS011;15769;52.248;15.818;2024-02-04T19:47:14;10.57;;;4.28;;
28577;SDS011;15769;52.248;15.818;2024-02-04T19:52:23;12.73;;;5.47;;
28577;SDS011;15769;52.248;15.818;2024-02-04T19:57:29;14.00;;;7.38;;
28577;SDS011;15769;52.248;15.818;2024-02-04T20:02:37;11.35;;;4.47;;
28577;SDS011;15769;52.248;15.818;2024-02-04T20:12:53;11.75;;;5.38;;
28577;SDS011;15769;52.248;15.818;2024-02-04T20:23:34;12.30;;;4.70;;
28577;SDS011;15769;52.248;15.818;2024-02-04T20:34:16;11.18;;;4.68;;
28577;SDS011;15769;52.248;15.818;2024-02-04T20:39:21;10.90;;;4.45;;
28577;SDS011;15769;52.248;15.818;2024-02-04T20:44:29;12.95;;;3.97;;
28577;SDS011;15769;52.248;15.818;2024-02-04T20:55:08;8.02;;;3.08;;
28577;SDS011;15769;52.248;15.818;2024-02-04T21:05:20;6.95;;;3.67;;
28577;SDS011;15769;52.248;15.818;2024-02-04T21:10:26;8.57;;;3.88;;
28577;SDS011;15769;52.248;15.818;2024-02-04T21:15:30;9.48;;;4.20;;
28577;SDS011;15769;52.248;15.818;2024-02-04T21:26:28;7.10;;;3.45;;
28577;SDS011;15769;52.248;15.818;2024-02-04T21:31:32;12.05;;;5.25;;
28577;SDS011;15769;52.248;15.818;2024-02-04T21:36:35;12.88;;;5.65;;
28577;SDS011;15769;52.248;15.818;2024-02-04T21:41:38;12.20;;;5.88;;
28577;SDS011;15769;52.248;15.818;2024-02-04T21:46:45;11.93;;;5.18;;
28577;SDS011;15769;52.248;15.818;2024-02-04T21:51:50;14.25;;;5.07;;
28577;SDS011;15769;52.248;15.818;2024-02-04T21:56:57;9.15;;;3.70;;
28577;SDS011;15769;52.248;15.818;2024-02-04T22:02:02;7.63;;;3.63;;
28577;SDS011;15769;52.248;15.818;2024-02-04T22:17:56;6.50;;;2.88;;
28577;SDS011;15769;52.248;15.818;2024-02-04T22:23:03;8.18;;;2.67;;
28577;SDS011;15769;52.248;15.818;2024-02-04T22:38:35;189.07;;;89.40;;
28577;SDS011;15769;52.248;15.818;2024-02-04T22:43:38;174.80;;;46.30;;
28577;SDS011;15769;52.248;15.818;2024-02-04T22:49:01;110.15;;;26.40;;
28577;SDS011;15769;52.248;15.818;2024-02-04T22:54:05;155.77;;;48.22;;
28577;SDS011;15769;52.248;15.818;2024-02-04T22:59:08;116.15;;;27.00;;
28577;SDS011;15769;52.248;15.818;2024-02-04T23:04:11;108.30;;;23.45;;
28577;SDS011;15769;52.248;15.818;2024-02-04T23:09:15;62.67;;;25.58;;
28577;SDS011;15769;52.248;15.818;2024-02-04T23:14:21;131.60;;;29.27;;
28577;SDS011;15769;52.248;15.818;2024-02-04T23:24:44;33.85;;;8.88;;
28577;SDS011;15769;52.248;15.818;2024-02-04T23:29:48;30.55;;;8.63;;
28577;SDS011;15769;52.248;15.818;2024-02-04T23:39:56;53.03;;;13.10;;
28577;SDS011;15769;52.248;15.818;2024-02-04T23:45:05;30.35;;;9.00;;
